sensor_id;sensor_type;location;lat;lon;timestamp;P1;durP1;ratioP1;P2;durP2;ratioP2
65189;SDS011;51777;53.570;9.984;2022-12-07T00:01:27;12.38;;;8.25;;
65189;SDS011;51777;53.570;9.984;2022-12-07T00:03:54;13.13;;;8.05;;
65189;SDS011;51777;53.570;9.984;2022-12-07T00:06:34;16.73;;;9.02;;
65189;SDS011;51777;53.570;9.984;2022-12-07T00:09:09;12.90;;;6.35;;
65189;SDS011;51777;53.570;9.984;2022-12-07T00:11:37;11.50;;;7.65;;
65189;SDS011;51777;53.570;9.984;2022-12-07T00:14:03;19.25;;;12.00;;
65189;SDS011;51777;53.570;9.984;2022-12-07T00:16:31;17.27;;;10.52;;
65189;SDS011;51777;53.570;9.984;2022-12-07T00:18:57;15.45;;;8.63;;
65189;SDS011;51777;53.570;9.984;2022-12-07T00:21:24;11.20;;;7.43;;
65189;SDS011;51777;53.570;9.984;2022-12-07T00:23:52;14.10;;;8.23;;
65189;SDS011;51777;53.570;9.984;2022-12-07T00:26:19;9.75;;;5.80;;
65189;SDS011;51777;53.570;9.984;2022-12-07T00:28:51;8.13;;;5.18;;
65189;SDS011;51777;53.570;9.984;2022-12-07T00:31:18;21.00;;;11.50;;
65189;SDS011;51777;53.570;9.984;2022-12-07T00:33:45;16.77;;;10.30;;
65189;SDS011;51777;53.570;9.984;2022-12-07T00:36:12;11.75;;;7.03;;
65189;SDS011;51777;53.570;9.984;2022-12-07T00:38:40;12.20;;;7.93;;
65189;SDS011;51777;53.570;9.984;2022-12-07T00:41:12;11.27;;;6.57;;
65189;SDS011;51777;53.570;9.984;2022-12-07T00:43:43;14.68;;;9.18;;
65189;SDS011;51777;53.570;9.984;2022-12-07T00:46:09;12.98;;;7.50;;
65189;SDS011;51777;53.570;9.984;2022-12-07T00:48:36;18.05;;;10.57;;
65189;SDS011;51777;53.570;9.984;2022-12-07T00:51:01;9.80;;;7.03;;
65189;SDS011;51777;53.570;9.984;2022-12-07T00:53:27;18.48;;;10.80;;
65189;SDS011;51777;53.570;9.984;2022-12-07T00:55:53;16.52;;;8.05;;
65189;SDS011;51777;53.570;9.984;2022-12-07T00:58:20;13.88;;;8.23;;
65189;SDS011;51777;53.570;9.984;2022-12-07T01:00:46;6.43;;;4.13;;
65189;SDS011;51777;53.570;9.984;2022-12-07T01:03:12;15.07;;;4.50;;
65189;SDS011;51777;53.570;9.984;2022-12-07T01:05:39;9.40;;;6.05;;
65189;SDS011;51777;53.570;9.984;2022-12-07T01:08:05;11.73;;;7.05;;
65189;SDS011;51777;53.570;9.984;2022-12-07T01:10:31;7.85;;;4.82;;
65189;SDS011;51777;53.570;9.984;2022-12-07T01:12:57;14.88;;;9.65;;
65189;SDS011;51777;53.570;9.984;2022-12-07T01:15:23;10.95;;;7.55;;
65189;SDS011;51777;53.570;9.984;2022-12-07T01:17:50;10.73;;;6.78;;
65189;SDS011;51777;53.570;9.984;2022-12-07T01:20:15;11.40;;;7.20;;
65189;SDS011;51777;53.570;9.984;2022-12-07T01:22:41;7.50;;;4.00;;
65189;SDS011;51777;53.570;9.984;2022-12-07T01:25:07;16.52;;;9.02;;
65189;SDS011;51777;53.570;9.984;2022-12-07T01:27:34;11.20;;;6.85;;
65189;SDS011;51777;53.570;9.984;2022-12-07T01:30:00;15.65;;;8.95;;
65189;SDS011;51777;53.570;9.984;2022-12-07T01:32:26;9.43;;;5.70;;
65189;SDS011;51777;53.570;9.984;2022-12-07T01:34:51;8.32;;;4.72;;
65189;SDS011;51777;53.570;9.984;2022-12-07T01:37:16;12.07;;;7.25;;
65189;SDS011;51777;53.570;9.984;2022-12-07T01:39:42;11.70;;;6.18;;
65189;SDS011;51777;53.570;9.984;2022-12-07T01:42:11;9.65;;;6.35;;
65189;SDS011;51777;53.570;9.984;2022-12-07T01:47:56;7.82;;;4.45;;
65189;SDS011;51777;53.570;9.984;2022-12-07T01:50:23;13.02;;;7.72;;
65189;SDS011;51777;53.570;9.984;2022-12-07T01:52:52;6.05;;;4.50;;
65189;SDS011;51777;53.570;9.984;2022-12-07T01:55:20;10.15;;;4.95;;
65189;SDS011;51777;53.570;9.984;2022-12-07T01:57:49;7.45;;;5.03;;
65189;SDS011;51777;53.570;9.984;2022-12-07T02:00:17;12.68;;;7.50;;
65189;SDS011;51777;53.570;9.984;2022-12-07T02:02:44;10.45;;;6.30;;
65189;SDS011;51777;53.570;9.984;2022-12-07T02:05:14;14.70;;;7.97;;
65189;SDS011;51777;53.570;9.984;2022-12-07T02:07:41;10.80;;;6.55;;
65189;SDS011;51777;53.570;9.984;2022-12-07T02:12:39;10.65;;;6.47;;
65189;SDS011;51777;53.570;9.984;2022-12-07T02:15:05;7.75;;;5.28;;
65189;SDS011;51777;53.570;9.984;2022-12-07T02:17:32;8.27;;;5.43;;
65189;SDS011;51777;53.570;9.984;2022-12-07T02:25:40;7.50;;;4.55;;
65189;SDS011;51777;53.570;9.984;2022-12-07T02:28:08;11.30;;;6.20;;
65189;SDS011;51777;53.570;9.984;2022-12-07T02:30:45;9.93;;;5.97;;
65189;SDS011;51777;53.570;9.984;2022-12-07T02:33:18;9.82;;;5.80;;
65189;SDS011;51777;53.570;9.984;2022-12-07T02:38:47;8.13;;;4.63;;
65189;SDS011;51777;53.570;9.984;2022-12-07T02:41:30;10.15;;;4.63;;
65189;SDS011;51777;53.570;9.984;2022-12-07T02:44:06;7.45;;;3.70;;
65189;SDS011;51777;53.570;9.984;2022-12-07T02:46:42;10.73;;;4.30;;
65189;SDS011;51777;53.570;9.984;2022-12-07T02:49:12;9.77;;;4.18;;
65189;SDS011;51777;53.570;9.984;2022-12-07T02:51:41;10.23;;;3.78;;
65189;SDS011;51777;53.570;9.984;2022-12-07T02:54:13;6.97;;;3.53;;
65189;SDS011;51777;53.570;9.984;2022-12-07T02:56:48;7.53;;;3.63;;
65189;SDS011;51777;53.570;9.984;2022-12-07T02:59:21;6.45;;;3.20;;
65189;SDS011;51777;53.570;9.984;2022-12-07T03:12:47;6.95;;;2.78;;
65189;SDS011;51777;53.570;9.984;2022-12-07T03:15:20;8.00;;;2.67;;
65189;SDS011;51777;53.570;9.984;2022-12-07T03:17:53;6.75;;;2.80;;
65189;SDS011;51777;53.570;9.984;2022-12-07T03:20:23;5.75;;;2.65;;
65189;SDS011;51777;53.570;9.984;2022-12-07T03:22:50;3.40;;;2.38;;
65189;SDS011;51777;53.570;9.984;2022-12-07T03:25:18;9.35;;;2.92;;
65189;SDS011;51777;53.570;9.984;2022-12-07T03:27:54;5.55;;;2.80;;
65189;SDS011;51777;53.570;9.984;2022-12-07T03:33:15;5.22;;;2.10;;
65189;SDS011;51777;53.570;9.984;2022-12-07T03:35:51;6.38;;;2.05;;
65189;SDS011;51777;53.570;9.984;2022-12-07T03:38:45;2.55;;;2.13;;
65189;SDS011;51777;53.570;9.984;2022-12-07T03:41:16;4.13;;;1.90;;
65189;SDS011;51777;53.570;9.984;2022-12-07T03:43:47;6.53;;;2.30;;
65189;SDS011;51777;53.570;9.984;2022-12-07T03:46:20;7.85;;;1.80;;
65189;SDS011;51777;53.570;9.984;2022-12-07T03:51:33;2.05;;;1.27;;
65189;SDS011;51777;53.570;9.984;2022-12-07T03:54:26;4.18;;;2.15;;
65189;SDS011;51777;53.570;9.984;2022-12-07T03:56:57;3.10;;;1.90;;
65189;SDS011;51777;53.570;9.984;2022-12-07T03:59:23;7.38;;;2.00;;
65189;SDS011;51777;53.570;9.984;2022-12-07T04:01:54;4.25;;;2.05;;
65189;SDS011;51777;53.570;9.984;2022-12-07T04:04:22;7.55;;;1.92;;
65189;SDS011;51777;53.570;9.984;2022-12-07T04:06:49;6.00;;;2.05;;
65189;SDS011;51777;53.570;9.984;2022-12-07T04:09:15;4.03;;;1.83;;
65189;SDS011;51777;53.570;9.984;2022-12-07T04:11:41;3.00;;;1.67;;
65189;SDS011;51777;53.570;9.984;2022-12-07T04:14:07;3.83;;;2.00;;
65189;SDS011;51777;53.570;9.984;2022-12-07T04:16:49;7.00;;;1.90;;
65189;SDS011;51777;53.570;9.984;2022-12-07T04:19:23;3.30;;;1.75;;
65189;SDS011;51777;53.570;9.984;2022-12-07T04:21:50;8.93;;;2.00;;
65189;SDS011;51777;53.570;9.984;2022-12-07T04:24:16;4.15;;;1.77;;
65189;SDS011;51777;53.570;9.984;2022-12-07T04:26:42;7.32;;;2.33;;
65189;SDS011;51777;53.570;9.984;2022-12-07T04:29:09;4.32;;;1.80;;
65189;SDS011;51777;53.570;9.984;2022-12-07T04:31:35;3.55;;;2.20;;
65189;SDS011;51777;53.570;9.984;2022-12-07T04:34:01;8.15;;;2.65;;
65189;SDS011;51777;53.570;9.984;2022-12-07T04:36:27;4.45;;;2.10;;
65189;SDS011;51777;53.570;9.984;2022-12-07T04:38:53;3.35;;;1.90;;
65189;SDS011;51777;53.570;9.984;2022-12-07T04:41:20;5.55;;;2.40;;
65189;SDS011;51777;53.570;9.984;2022-12-07T04:43:52;8.38;;;2.05;;
65189;SDS011;51777;53.570;9.984;2022-12-07T04:46:21;2.60;;;2.10;;
65189;SDS011;51777;53.570;9.984;2022-12-07T04:48:47;4.68;;;2.05;;
65189;SDS011;51777;53.570;9.984;2022-12-07T04:51:13;8.60;;;2.55;;
65189;SDS011;51777;53.570;9.984;2022-12-07T04:53:40;6.25;;;2.30;;
65189;SDS011;51777;53.570;9.984;2022-12-07T04:56:06;3.72;;;2.40;;
65189;SDS011;51777;53.570;9.984;2022-12-07T04:58:31;3.97;;;2.10;;
65189;SDS011;51777;53.570;9.984;2022-12-07T05:00:57;5.22;;;2.20;;
65189;SDS011;51777;53.570;9.984;2022-12-07T05:03:22;6.03;;;2.22;;
65189;SDS011;51777;53.570;9.984;2022-12-07T05:05:47;6.32;;;2.15;;
65189;SDS011;51777;53.570;9.984;2022-12-07T05:08:13;5.60;;;2.22;;
65189;SDS011;51777;53.570;9.984;2022-12-07T05:10:38;5.05;;;2.53;;
65189;SDS011;51777;53.570;9.984;2022-12-07T05:13:03;4.28;;;2.50;;
65189;SDS011;51777;53.570;9.984;2022-12-07T05:15:29;7.88;;;3.20;;
65189;SDS011;51777;53.570;9.984;2022-12-07T05:17:54;4.65;;;2.42;;
65189;SDS011;51777;53.570;9.984;2022-12-07T05:20:20;6.13;;;2.55;;
65189;SDS011;51777;53.570;9.984;2022-12-07T05:22:45;6.35;;;2.60;;
65189;SDS011;51777;53.570;9.984;2022-12-07T05:25:10;10.85;;;2.60;;
65189;SDS011;51777;53.570;9.984;2022-12-07T05:27:36;7.40;;;2.60;;
65189;SDS011;51777;53.570;9.984;2022-12-07T05:30:01;7.13;;;2.40;;
65189;SDS011;51777;53.570;9.984;2022-12-07T05:32:27;6.35;;;2.63;;
65189;SDS011;51777;53.570;9.984;2022-12-07T05:34:52;4.10;;;2.38;;
65189;SDS011;51777;53.570;9.984;2022-12-07T05:37:19;5.43;;;2.60;;
65189;SDS011;51777;53.570;9.984;2022-12-07T05:39:45;7.70;;;2.60;;
65189;SDS011;51777;53.570;9.984;2022-12-07T05:42:10;5.78;;;2.40;;
65189;SDS011;51777;53.570;9.984;2022-12-07T05:44:39;7.97;;;3.10;;
65189;SDS011;51777;53.570;9.984;2022-12-07T05:47:09;4.03;;;2.65;;
65189;SDS011;51777;53.570;9.984;2022-12-07T05:49:35;1.95;;;1.30;;
65189;SDS011;51777;53.570;9.984;2022-12-07T05:52:00;4.97;;;2.58;;
65189;SDS011;51777;53.570;9.984;2022-12-07T05:54:26;5.07;;;2.35;;
65189;SDS011;51777;53.570;9.984;2022-12-07T05:56:51;4.47;;;2.20;;
65189;SDS011;51777;53.570;9.984;2022-12-07T05:59:17;4.85;;;2.40;;
65189;SDS011;51777;53.570;9.984;2022-12-07T06:01:55;6.15;;;2.60;;
65189;SDS011;51777;53.570;9.984;2022-12-07T06:04:33;7.18;;;2.67;;
65189;SDS011;51777;53.570;9.984;2022-12-07T06:07:00;7.07;;;2.17;;
65189;SDS011;51777;53.570;9.984;2022-12-07T06:09:26;7.55;;;2.55;;
65189;SDS011;51777;53.570;9.984;2022-12-07T06:11:53;3.75;;;2.17;;
65189;SDS011;51777;53.570;9.984;2022-12-07T06:14:37;1.95;;;1.55;;
65189;SDS011;51777;53.570;9.984;2022-12-07T06:17:03;2.03;;;1.50;;
65189;SDS011;51777;53.570;9.984;2022-12-07T06:19:29;5.00;;;2.45;;
65189;SDS011;51777;53.570;9.984;2022-12-07T06:21:56;6.10;;;2.58;;
65189;SDS011;51777;53.570;9.984;2022-12-07T06:24:22;6.20;;;2.47;;
65189;SDS011;51777;53.570;9.984;2022-12-07T06:26:50;3.92;;;2.00;;
65189;SDS011;51777;53.570;9.984;2022-12-07T06:29:16;5.70;;;2.65;;
65189;SDS011;51777;53.570;9.984;2022-12-07T06:31:42;5.22;;;2.30;;
65189;SDS011;51777;53.570;9.984;2022-12-07T06:34:11;4.95;;;2.53;;
65189;SDS011;51777;53.570;9.984;2022-12-07T06:36:39;4.60;;;2.22;;
65189;SDS011;51777;53.570;9.984;2022-12-07T06:39:05;4.55;;;2.10;;
65189;SDS011;51777;53.570;9.984;2022-12-07T06:41:34;4.38;;;1.88;;
65189;SDS011;51777;53.570;9.984;2022-12-07T06:44:20;3.80;;;1.88;;
65189;SDS011;51777;53.570;9.984;2022-12-07T06:46:47;4.20;;;1.77;;
65189;SDS011;51777;53.570;9.984;2022-12-07T06:49:12;6.30;;;1.60;;
65189;SDS011;51777;53.570;9.984;2022-12-07T06:51:38;2.63;;;1.42;;
65189;SDS011;51777;53.570;9.984;2022-12-07T06:54:06;1.98;;;1.33;;
65189;SDS011;51777;53.570;9.984;2022-12-07T06:56:35;3.30;;;1.77;;
65189;SDS011;51777;53.570;9.984;2022-12-07T06:59:02;8.38;;;2.05;;
65189;SDS011;51777;53.570;9.984;2022-12-07T07:01:27;1.30;;;1.20;;
65189;SDS011;51777;53.570;9.984;2022-12-07T07:03:54;1.23;;;1.13;;
65189;SDS011;51777;53.570;9.984;2022-12-07T07:06:19;1.48;;;1.33;;
65189;SDS011;51777;53.570;9.984;2022-12-07T07:08:45;6.40;;;1.95;;
65189;SDS011;51777;53.570;9.984;2022-12-07T07:11:11;5.10;;;2.10;;
65189;SDS011;51777;53.570;9.984;2022-12-07T07:13:37;0.65;;;0.65;;
65189;SDS011;51777;53.570;9.984;2022-12-07T07:16:03;4.70;;;1.48;;
65189;SDS011;51777;53.570;9.984;2022-12-07T07:18:29;2.97;;;1.73;;
65189;SDS011;51777;53.570;9.984;2022-12-07T07:20:54;5.80;;;1.63;;
65189;SDS011;51777;53.570;9.984;2022-12-07T07:23:20;2.20;;;1.42;;
65189;SDS011;51777;53.570;9.984;2022-12-07T07:25:46;1.60;;;1.27;;
65189;SDS011;51777;53.570;9.984;2022-12-07T07:28:13;3.78;;;1.40;;
65189;SDS011;51777;53.570;9.984;2022-12-07T07:30:39;4.15;;;1.88;;
65189;SDS011;51777;53.570;9.984;2022-12-07T07:33:05;4.88;;;1.30;;
65189;SDS011;51777;53.570;9.984;2022-12-07T07:35:31;3.85;;;1.38;;
65189;SDS011;51777;53.570;9.984;2022-12-07T07:37:57;0.70;;;0.70;;
65189;SDS011;51777;53.570;9.984;2022-12-07T07:40:24;6.07;;;1.80;;
65189;SDS011;51777;53.570;9.984;2022-12-07T07:42:53;2.15;;;0.80;;
65189;SDS011;51777;53.570;9.984;2022-12-07T07:45:20;1.50;;;1.13;;
65189;SDS011;51777;53.570;9.984;2022-12-07T07:47:47;2.13;;;1.20;;
65189;SDS011;51777;53.570;9.984;2022-12-07T07:50:13;1.67;;;1.00;;
65189;SDS011;51777;53.570;9.984;2022-12-07T07:52:38;7.60;;;1.52;;
65189;SDS011;51777;53.570;9.984;2022-12-07T07:55:05;2.00;;;1.27;;
65189;SDS011;51777;53.570;9.984;2022-12-07T07:57:33;2.50;;;1.45;;
65189;SDS011;51777;53.570;9.984;2022-12-07T07:59:59;3.35;;;1.35;;
65189;SDS011;51777;53.570;9.984;2022-12-07T08:02:24;3.40;;;0.75;;
65189;SDS011;51777;53.570;9.984;2022-12-07T08:04:50;7.10;;;1.42;;
65189;SDS011;51777;53.570;9.984;2022-12-07T08:07:15;8.13;;;1.20;;
65189;SDS011;51777;53.570;9.984;2022-12-07T08:09:41;9.32;;;1.60;;
65189;SDS011;51777;53.570;9.984;2022-12-07T08:12:08;3.33;;;1.23;;
65189;SDS011;51777;53.570;9.984;2022-12-07T08:14:33;7.72;;;1.92;;
65189;SDS011;51777;53.570;9.984;2022-12-07T08:16:59;5.80;;;1.60;;
65189;SDS011;51777;53.570;9.984;2022-12-07T08:19:25;1.77;;;0.90;;
65189;SDS011;51777;53.570;9.984;2022-12-07T08:21:50;6.68;;;1.67;;
65189;SDS011;51777;53.570;9.984;2022-12-07T08:24:15;2.10;;;1.13;;
65189;SDS011;51777;53.570;9.984;2022-12-07T08:26:41;7.88;;;1.60;;
65189;SDS011;51777;53.570;9.984;2022-12-07T08:29:07;5.38;;;1.13;;
65189;SDS011;51777;53.570;9.984;2022-12-07T08:31:32;8.20;;;2.03;;
65189;SDS011;51777;53.570;9.984;2022-12-07T08:33:58;2.80;;;1.33;;
65189;SDS011;51777;53.570;9.984;2022-12-07T08:36:23;6.63;;;1.70;;
65189;SDS011;51777;53.570;9.984;2022-12-07T08:38:49;2.38;;;1.40;;
65189;SDS011;51777;53.570;9.984;2022-12-07T08:41:15;8.20;;;1.45;;
65189;SDS011;51777;53.570;9.984;2022-12-07T08:43:41;4.13;;;1.20;;
65189;SDS011;51777;53.570;9.984;2022-12-07T08:46:25;8.05;;;1.27;;
65189;SDS011;51777;53.570;9.984;2022-12-07T08:49:02;2.38;;;0.90;;
65189;SDS011;51777;53.570;9.984;2022-12-07T08:51:30;1.25;;;0.82;;
65189;SDS011;51777;53.570;9.984;2022-12-07T08:53:56;5.72;;;2.00;;
65189;SDS011;51777;53.570;9.984;2022-12-07T08:56:24;2.40;;;1.10;;
65189;SDS011;51777;53.570;9.984;2022-12-07T08:58:50;7.13;;;1.58;;
65189;SDS011;51777;53.570;9.984;2022-12-07T09:01:15;5.38;;;1.33;;
65189;SDS011;51777;53.570;9.984;2022-12-07T09:03:41;6.47;;;1.80;;
65189;SDS011;51777;53.570;9.984;2022-12-07T09:06:06;3.70;;;1.65;;
65189;SDS011;51777;53.570;9.984;2022-12-07T09:08:33;38.28;;;2.30;;
65189;SDS011;51777;53.570;9.984;2022-12-07T09:11:05;7.25;;;1.88;;
65189;SDS011;51777;53.570;9.984;2022-12-07T09:13:30;2.78;;;1.20;;
65189;SDS011;51777;53.570;9.984;2022-12-07T09:15:56;7.38;;;1.70;;
65189;SDS011;51777;53.570;9.984;2022-12-07T09:18:22;5.72;;;1.33;;
65189;SDS011;51777;53.570;9.984;2022-12-07T09:20:47;4.68;;;1.38;;
65189;SDS011;51777;53.570;9.984;2022-12-07T09:23:13;2.55;;;1.00;;
65189;SDS011;51777;53.570;9.984;2022-12-07T09:25:38;5.03;;;1.00;;
65189;SDS011;51777;53.570;9.984;2022-12-07T09:28:03;2.10;;;1.00;;
65189;SDS011;51777;53.570;9.984;2022-12-07T09:30:29;9.40;;;1.90;;
65189;SDS011;51777;53.570;9.984;2022-12-07T09:32:55;6.15;;;1.45;;
65189;SDS011;51777;53.570;9.984;2022-12-07T09:35:23;3.38;;;1.33;;
65189;SDS011;51777;53.570;9.984;2022-12-07T09:37:49;4.93;;;1.55;;
65189;SDS011;51777;53.570;9.984;2022-12-07T09:40:15;8.32;;;1.55;;
65189;SDS011;51777;53.570;9.984;2022-12-07T09:42:44;9.80;;;1.58;;
65189;SDS011;51777;53.570;9.984;2022-12-07T09:45:14;17.20;;;2.15;;
65189;SDS011;51777;53.570;9.984;2022-12-07T09:47:41;3.63;;;1.20;;
65189;SDS011;51777;53.570;9.984;2022-12-07T09:50:12;8.07;;;1.52;;
65189;SDS011;51777;53.570;9.984;2022-12-07T09:52:40;4.57;;;1.45;;
65189;SDS011;51777;53.570;9.984;2022-12-07T09:55:09;17.38;;;1.92;;
65189;SDS011;51777;53.570;9.984;2022-12-07T09:57:39;8.13;;;1.50;;
65189;SDS011;51777;53.570;9.984;2022-12-07T10:00:10;6.85;;;1.40;;
65189;SDS011;51777;53.570;9.984;2022-12-07T10:03:01;7.97;;;2.08;;
65189;SDS011;51777;53.570;9.984;2022-12-07T10:05:28;7.35;;;1.90;;
65189;SDS011;51777;53.570;9.984;2022-12-07T10:07:58;8.68;;;1.67;;
65189;SDS011;51777;53.570;9.984;2022-12-07T10:10:25;13.02;;;2.40;;
65189;SDS011;51777;53.570;9.984;2022-12-07T10:13:04;6.07;;;2.00;;
65189;SDS011;51777;53.570;9.984;2022-12-07T10:18:32;3.17;;;1.38;;
65189;SDS011;51777;53.570;9.984;2022-12-07T10:21:16;3.10;;;1.08;;
65189;SDS011;51777;53.570;9.984;2022-12-07T10:26:36;7.00;;;1.15;;
65189;SDS011;51777;53.570;9.984;2022-12-07T10:29:18;3.50;;;1.00;;
65189;SDS011;51777;53.570;9.984;2022-12-07T10:31:50;3.13;;;1.10;;
65189;SDS011;51777;53.570;9.984;2022-12-07T10:34:26;12.23;;;1.60;;
65189;SDS011;51777;53.570;9.984;2022-12-07T10:42:15;5.35;;;1.55;;
65189;SDS011;51777;53.570;9.984;2022-12-07T10:44:44;4.10;;;1.23;;
65189;SDS011;51777;53.570;9.984;2022-12-07T10:58:34;4.68;;;1.20;;
65189;SDS011;51777;53.570;9.984;2022-12-07T11:01:23;5.68;;;1.30;;
65189;SDS011;51777;53.570;9.984;2022-12-07T11:12:31;6.32;;;1.88;;
65189;SDS011;51777;53.570;9.984;2022-12-07T11:17:52;9.25;;;1.58;;
65189;SDS011;51777;53.570;9.984;2022-12-07T11:20:26;7.45;;;1.30;;
65189;SDS011;51777;53.570;9.984;2022-12-07T11:23:18;5.45;;;1.38;;
65189;SDS011;51777;53.570;9.984;2022-12-07T11:31:22;6.57;;;1.70;;
65189;SDS011;51777;53.570;9.984;2022-12-07T11:34:07;2.63;;;1.08;;
65189;SDS011;51777;53.570;9.984;2022-12-07T11:36:43;11.43;;;1.67;;
65189;SDS011;51777;53.570;9.984;2022-12-07T11:41:46;5.45;;;1.33;;
65189;SDS011;51777;53.570;9.984;2022-12-07T11:49:41;9.80;;;1.35;;
65189;SDS011;51777;53.570;9.984;2022-12-07T11:52:13;7.03;;;1.60;;
65189;SDS011;51777;53.570;9.984;2022-12-07T11:54:47;10.05;;;1.75;;
65189;SDS011;51777;53.570;9.984;2022-12-07T12:00:04;10.18;;;3.30;;
65189;SDS011;51777;53.570;9.984;2022-12-07T12:02:41;4.38;;;1.60;;
65189;SDS011;51777;53.570;9.984;2022-12-07T12:05:17;5.38;;;1.63;;
65189;SDS011;51777;53.570;9.984;2022-12-07T12:07:51;8.40;;;1.40;;
65189;SDS011;51777;53.570;9.984;2022-12-07T12:13:16;5.93;;;1.60;;
65189;SDS011;51777;53.570;9.984;2022-12-07T12:21:08;5.72;;;2.00;;
65189;SDS011;51777;53.570;9.984;2022-12-07T12:24:21;8.70;;;2.35;;
65189;SDS011;51777;53.570;9.984;2022-12-07T12:26:30;10.35;;;2.50;;
65189;SDS011;51777;53.570;9.984;2022-12-07T12:29:17;11.25;;;1.40;;
65189;SDS011;51777;53.570;9.984;2022-12-07T12:32:04;7.07;;;1.80;;
65189;SDS011;51777;53.570;9.984;2022-12-07T12:34:58;9.18;;;1.80;;
65189;SDS011;51777;53.570;9.984;2022-12-07T12:37:43;8.38;;;2.42;;
65189;SDS011;51777;53.570;9.984;2022-12-07T12:42:49;8.43;;;2.05;;
65189;SDS011;51777;53.570;9.984;2022-12-07T12:45:23;6.95;;;2.55;;
65189;SDS011;51777;53.570;9.984;2022-12-07T12:48:00;7.20;;;2.30;;
65189;SDS011;51777;53.570;9.984;2022-12-07T12:50:33;8.38;;;1.77;;
65189;SDS011;51777;53.570;9.984;2022-12-07T12:58:36;14.38;;;2.22;;
65189;SDS011;51777;53.570;9.984;2022-12-07T13:01:45;8.75;;;1.48;;
65189;SDS011;51777;53.570;9.984;2022-12-07T13:04:00;11.35;;;1.83;;
65189;SDS011;51777;53.570;9.984;2022-12-07T13:08:56;17.80;;;2.22;;
65189;SDS011;51777;53.570;9.984;2022-12-07T13:11:46;6.78;;;1.77;;
65189;SDS011;51777;53.570;9.984;2022-12-07T13:17:07;6.22;;;1.60;;
65189;SDS011;51777;53.570;9.984;2022-12-07T13:24:57;15.82;;;2.03;;
65189;SDS011;51777;53.570;9.984;2022-12-07T13:27:28;5.95;;;1.48;;
65189;SDS011;51777;53.570;9.984;2022-12-07T13:29:56;7.13;;;1.65;;
65189;SDS011;51777;53.570;9.984;2022-12-07T13:32:26;14.45;;;2.42;;
65189;SDS011;51777;53.570;9.984;2022-12-07T13:34:53;6.15;;;1.33;;
65189;SDS011;51777;53.570;9.984;2022-12-07T13:37:24;9.73;;;1.52;;
65189;SDS011;51777;53.570;9.984;2022-12-07T13:39:54;13.00;;;1.70;;
65189;SDS011;51777;53.570;9.984;2022-12-07T13:42:25;7.47;;;1.27;;
65189;SDS011;51777;53.570;9.984;2022-12-07T13:44:55;11.90;;;2.00;;
65189;SDS011;51777;53.570;9.984;2022-12-07T13:50:02;8.77;;;1.63;;
65189;SDS011;51777;53.570;9.984;2022-12-07T13:55:15;7.75;;;2.03;;
65189;SDS011;51777;53.570;9.984;2022-12-07T13:57:50;10.93;;;1.20;;
65189;SDS011;51777;53.570;9.984;2022-12-07T14:00:20;19.77;;;1.83;;
65189;SDS011;51777;53.570;9.984;2022-12-07T14:03:04;10.32;;;1.83;;
65189;SDS011;51777;53.570;9.984;2022-12-07T14:06:02;5.03;;;1.30;;
65189;SDS011;51777;53.570;9.984;2022-12-07T14:08:31;4.90;;;1.40;;
65189;SDS011;51777;53.570;9.984;2022-12-07T14:10:57;3.45;;;1.08;;
65189;SDS011;51777;53.570;9.984;2022-12-07T14:16:01;7.85;;;1.40;;
65189;SDS011;51777;53.570;9.984;2022-12-07T14:18:29;8.93;;;1.70;;
65189;SDS011;51777;53.570;9.984;2022-12-07T14:23:36;6.32;;;1.42;;
65189;SDS011;51777;53.570;9.984;2022-12-07T14:26:06;13.18;;;1.63;;
65189;SDS011;51777;53.570;9.984;2022-12-07T14:28:39;6.68;;;1.27;;
65189;SDS011;51777;53.570;9.984;2022-12-07T14:31:13;12.27;;;1.50;;
65189;SDS011;51777;53.570;9.984;2022-12-07T14:33:40;7.32;;;1.88;;
65189;SDS011;51777;53.570;9.984;2022-12-07T14:36:08;8.57;;;1.50;;
65189;SDS011;51777;53.570;9.984;2022-12-07T14:38:34;5.85;;;1.50;;
65189;SDS011;51777;53.570;9.984;2022-12-07T14:40:59;13.18;;;1.80;;
65189;SDS011;51777;53.570;9.984;2022-12-07T14:43:47;6.80;;;1.80;;
65189;SDS011;51777;53.570;9.984;2022-12-07T14:46:13;13.73;;;2.42;;
65189;SDS011;51777;53.570;9.984;2022-12-07T14:48:38;8.50;;;1.80;;
65189;SDS011;51777;53.570;9.984;2022-12-07T14:51:04;8.40;;;2.00;;
65189;SDS011;51777;53.570;9.984;2022-12-07T14:53:31;10.65;;;2.63;;
65189;SDS011;51777;53.570;9.984;2022-12-07T14:56:00;6.97;;;2.10;;
65189;SDS011;51777;53.570;9.984;2022-12-07T14:58:26;6.38;;;2.38;;
65189;SDS011;51777;53.570;9.984;2022-12-07T15:00:51;9.43;;;1.90;;
65189;SDS011;51777;53.570;9.984;2022-12-07T15:03:17;8.95;;;2.10;;
65189;SDS011;51777;53.570;9.984;2022-12-07T15:05:42;5.30;;;1.60;;
65189;SDS011;51777;53.570;9.984;2022-12-07T15:08:08;11.63;;;1.85;;
65189;SDS011;51777;53.570;9.984;2022-12-07T15:10:36;11.60;;;2.97;;
65189;SDS011;51777;53.570;9.984;2022-12-07T15:13:03;6.95;;;2.10;;
65189;SDS011;51777;53.570;9.984;2022-12-07T15:15:59;8.45;;;1.60;;
65189;SDS011;51777;53.570;9.984;2022-12-07T15:18:25;5.53;;;1.65;;
65189;SDS011;51777;53.570;9.984;2022-12-07T15:20:51;3.50;;;1.40;;
65189;SDS011;51777;53.570;9.984;2022-12-07T15:23:17;7.43;;;1.30;;
65189;SDS011;51777;53.570;9.984;2022-12-07T15:25:43;4.63;;;1.40;;
65189;SDS011;51777;53.570;9.984;2022-12-07T15:28:09;4.88;;;1.48;;
65189;SDS011;51777;53.570;9.984;2022-12-07T15:30:37;5.90;;;1.50;;
65189;SDS011;51777;53.570;9.984;2022-12-07T15:33:03;5.20;;;1.10;;
65189;SDS011;51777;53.570;9.984;2022-12-07T15:35:29;7.50;;;1.42;;
65189;SDS011;51777;53.570;9.984;2022-12-07T15:37:54;2.58;;;1.20;;
65189;SDS011;51777;53.570;9.984;2022-12-07T15:40:22;14.02;;;1.45;;
65189;SDS011;51777;53.570;9.984;2022-12-07T15:42:48;6.13;;;1.60;;
65189;SDS011;51777;53.570;9.984;2022-12-07T15:45:13;9.18;;;1.70;;
65189;SDS011;51777;53.570;9.984;2022-12-07T15:47:42;3.55;;;1.45;;
65189;SDS011;51777;53.570;9.984;2022-12-07T15:50:13;11.65;;;1.60;;
65189;SDS011;51777;53.570;9.984;2022-12-07T15:52:40;7.00;;;1.50;;
65189;SDS011;51777;53.570;9.984;2022-12-07T15:55:06;6.95;;;1.23;;
65189;SDS011;51777;53.570;9.984;2022-12-07T15:57:32;6.22;;;1.67;;
65189;SDS011;51777;53.570;9.984;2022-12-07T16:00:00;8.00;;;2.03;;
65189;SDS011;51777;53.570;9.984;2022-12-07T16:02:25;6.88;;;1.85;;
65189;SDS011;51777;53.570;9.984;2022-12-07T16:04:51;8.25;;;1.92;;
65189;SDS011;51777;53.570;9.984;2022-12-07T16:07:18;11.20;;;2.00;;
65189;SDS011;51777;53.570;9.984;2022-12-07T16:09:43;9.18;;;1.85;;
65189;SDS011;51777;53.570;9.984;2022-12-07T16:12:10;4.97;;;1.67;;
65189;SDS011;51777;53.570;9.984;2022-12-07T16:14:36;12.90;;;1.90;;
65189;SDS011;51777;53.570;9.984;2022-12-07T16:17:02;6.78;;;2.00;;
65189;SDS011;51777;53.570;9.984;2022-12-07T16:19:29;6.38;;;2.13;;
65189;SDS011;51777;53.570;9.984;2022-12-07T16:21:55;10.68;;;1.90;;
65189;SDS011;51777;53.570;9.984;2022-12-07T16:24:21;11.90;;;2.05;;
65189;SDS011;51777;53.570;9.984;2022-12-07T16:26:47;5.90;;;2.13;;
65189;SDS011;51777;53.570;9.984;2022-12-07T16:29:13;5.65;;;2.17;;
65189;SDS011;51777;53.570;9.984;2022-12-07T16:31:38;7.07;;;2.40;;
65189;SDS011;51777;53.570;9.984;2022-12-07T16:34:04;7.10;;;2.40;;
65189;SDS011;51777;53.570;9.984;2022-12-07T16:36:31;13.02;;;2.65;;
65189;SDS011;51777;53.570;9.984;2022-12-07T16:38:57;12.77;;;3.20;;
65189;SDS011;51777;53.570;9.984;2022-12-07T16:41:24;8.45;;;3.05;;
65189;SDS011;51777;53.570;9.984;2022-12-07T16:43:49;6.93;;;2.78;;
65189;SDS011;51777;53.570;9.984;2022-12-07T16:46:14;11.68;;;2.67;;
65189;SDS011;51777;53.570;9.984;2022-12-07T16:48:40;17.70;;;3.10;;
65189;SDS011;51777;53.570;9.984;2022-12-07T16:51:07;5.93;;;2.80;;
65189;SDS011;51777;53.570;9.984;2022-12-07T16:53:34;8.55;;;2.72;;
65189;SDS011;51777;53.570;9.984;2022-12-07T16:56:00;10.07;;;2.75;;